Airfield :







YOU CAN JOIN US ON...

 
LOGIN :

Register | Disclaimer

   EN    FR    IT 

 









Legend :    VFR   Marginal VFR   IFR   Intensive IFR   Very Intensive IFR
Visi :
Ceiling :
>= 8 km
>= 3000ft
5 to 8 km
1000 to 3000 ft
1500m to 5 km
500 to 1000 ft
800 to 1500m
200 to 500 ft
< 800m
< 200 ft
Symbols :   Thunderstorms  Fog  Heavy snow  Heavy precipitations  Wind > 20 kt







- Airport Elevation : 1005 ft
- IATA code : YAH


CYAH - La Grande-4

CURRENT METAR :
  • 220725Z AUTO 30007KT 9SM -SN BKN010 OVC016 M05/M07 A2957 RMK SLP034

EXPIRED METARs :
  • 220722Z AUTO 30010KT 270V330 9SM BKN010 OVC016 M05/M06 A2957 RMK SLP033
  • 220700Z AUTO 31011G16KT 9SM -SN BKN009 OVC016 M04/M05 A2955 RMK SLP028
  • 220641Z AUTO 31010G17KT 9SM -SN BKN009 OVC018 M03/M04 A2954 RMK SLP023
  • 220631Z AUTO 30011G17KT 6SM -SN OVC010 M03/M04 A2953 RMK SLP021
  • 220622Z AUTO 30009KT 280V340 2 1/4SM -SN BKN008 OVC012 M02/M03 A2953 RMK SLP018
  • 220600Z AUTO 29004KT 5SM -SN SCT010 BKN016 OVC026 M02/M03 A2952 RMK SLP015
  • 220537Z AUTO 27009KT 3SM -SN BKN010 OVC024 M02/M03 A2951 RMK SLP011
  • 220500Z AUTO 27009KT 3SM -SN FEW010 BKN025 OVC033 M02/M02 A2949 RMK SLP005

Expired Forecast.
CZUL FIR / North America



MET'MAP, your aeronautical weather chart ! - Copyright ORBIFLY December 2007 - Disclaimer

ORBIFLY MET'MAP TEAM :

Programming & Development : Alexandra Zaïnal
Concept & Development : Baudouin d'Aumeries
Co-Development & Prog : Marc-Olivier Méhu
Technical & hardware support : Manuel Goepfert

Contact : metmap@orbifly.com




SOURCES & CREDITS :

   NOAA